Grand Cane, Louisiana
Current Conditions -  °F | °C
As of 3:56 AM on Thursday 23 Oct 2014 (Local Time) from KSHV Reporting Station
Overcast Overcast  
Wind Chill: 57°   Ceiling: 25000
Heat Index: 57°   Visibility: 10mi
Dew Point: 49°   Wind: 5mph
Humidity: 74%   Direction: 120°ESE
Pressure: 30.12"   Gusts: NA
Location:  32.08°N, 93.81°W
Report Text: KSHV 230856Z 12004KT 10SM OVC250 14/09 A3012 RMK AO2 SLP198 T01390094 55002
Loading
Personal Weather Stations






























Interactive Weather Map
Tropical Storm Tracking
New forecast layout! Learn more

10-Day Weather Forecast

Advertisements
Track Severe Weather on mobile